createdAt,value
2022-08-18T00:01:32.312Z,16.80
2022-08-18T00:06:37.110Z,15.40
2022-08-18T00:11:44.399Z,17.70
2022-08-18T00:16:49.030Z,18.60
2022-08-18T00:21:54.019Z,17.30
2022-08-18T00:26:58.464Z,18.00
2022-08-18T00:32:13.875Z,18.20
2022-08-18T00:37:17.696Z,16.20
2022-08-18T00:42:30.582Z,14.50
2022-08-18T00:47:42.283Z,15.80
2022-08-18T00:52:54.394Z,16.60
2022-08-18T00:58:08.327Z,16.80
2022-08-18T01:03:17.032Z,16.80
2022-08-18T01:13:34.554Z,15.80
2022-08-18T01:18:57.890Z,16.00
2022-08-18T01:24:06.064Z,14.10
2022-08-18T01:29:18.716Z,15.20
2022-08-18T01:34:26.229Z,15.50
2022-08-18T01:41:24.885Z,14.10
2022-08-18T01:44:54.542Z,16.00
2022-08-18T01:50:00.442Z,17.20
2022-08-18T01:55:05.529Z,15.30
2022-08-18T02:00:15.310Z,14.10
2022-08-18T02:05:28.487Z,15.60
2022-08-18T02:10:35.442Z,14.80
2022-08-18T02:15:41.992Z,14.30
2022-08-18T02:20:49.246Z,16.30
2022-08-18T02:25:53.384Z,13.80
2022-08-18T02:30:57.932Z,14.50
2022-08-18T02:36:03.661Z,16.10
2022-08-18T02:41:11.293Z,16.00
2022-08-18T02:46:17.217Z,14.00
2022-08-18T02:51:22.348Z,14.80
2022-08-18T02:56:32.707Z,15.40
2022-08-18T03:01:49.409Z,15.60
2022-08-18T03:06:53.565Z,15.00
2022-08-18T03:11:59.149Z,17.40
2022-08-18T03:17:06.777Z,16.80
2022-08-18T03:22:28.738Z,14.50
2022-08-18T03:27:36.415Z,13.60
2022-08-18T03:32:41.084Z,14.00
2022-08-18T03:37:50.484Z,13.90
2022-08-18T03:42:55.649Z,14.50
2022-08-18T03:48:01.247Z,16.20
2022-08-18T03:53:06.198Z,15.00
2022-08-18T03:58:15.941Z,15.90
2022-08-18T04:03:19.426Z,14.50
2022-08-18T04:08:24.183Z,13.70
2022-08-18T04:13:28.929Z,17.10
2022-08-18T04:18:34.033Z,15.60
2022-08-18T04:23:39.486Z,15.70
2022-08-18T04:28:49.643Z,14.50
2022-08-18T04:33:55.238Z,15.90
2022-08-18T04:39:00.739Z,17.10
2022-08-18T04:44:09.276Z,18.90
2022-08-18T04:49:14.390Z,17.20
2022-08-18T04:54:18.803Z,17.70
2022-08-18T04:59:22.033Z,18.70
2022-08-18T05:04:29.440Z,18.70
2022-08-18T05:09:41.407Z,17.00
2022-08-18T05:14:46.850Z,17.80
2022-08-18T05:19:50.871Z,20.70
2022-08-18T05:24:55.090Z,21.50
2022-08-18T05:29:59.653Z,20.50
2022-08-18T05:35:07.994Z,17.40
2022-08-18T05:40:15.476Z,19.30
2022-08-18T05:45:21.472Z,18.10
2022-08-18T05:56:17.253Z,16.10
2022-08-18T06:01:30.738Z,16.70
2022-08-18T06:06:36.848Z,15.80
2022-08-18T06:11:40.917Z,17.70
2022-08-18T06:17:01.623Z,17.20
2022-08-18T06:22:29.808Z,15.10
2022-08-18T06:27:44.502Z,16.90
2022-08-18T06:33:04.420Z,16.40
2022-08-18T06:38:36.317Z,16.90
2022-08-18T06:44:04.784Z,16.70
2022-08-18T06:49:17.686Z,16.20
2022-08-18T06:54:21.091Z,15.20
2022-08-18T06:59:31.445Z,16.10
2022-08-18T07:04:44.712Z,15.30
2022-08-18T07:09:49.168Z,14.50
2022-08-18T07:14:57.127Z,13.90
2022-08-18T07:20:18.588Z,14.50
2022-08-18T07:25:34.801Z,12.60
2022-08-18T07:30:41.950Z,11.90
2022-08-18T07:36:06.298Z,11.00
2022-08-18T07:41:21.904Z,11.90
2022-08-18T07:46:59.229Z,12.40
2022-08-18T07:52:43.773Z,13.20
2022-08-18T07:57:59.791Z,12.80
2022-08-18T08:03:43.870Z,11.30
2022-08-18T08:09:03.691Z,11.40
2022-08-18T08:14:34.023Z,12.40
2022-08-18T08:20:02.500Z,11.70
2022-08-18T08:25:45.782Z,12.20
2022-08-18T08:31:36.654Z,10.70
2022-08-18T08:36:45.724Z,12.00
2022-08-18T08:42:29.062Z,11.30
2022-08-18T08:47:49.130Z,10.40
2022-08-18T08:53:09.238Z,11.70
2022-08-18T08:58:34.643Z,11.10
2022-08-18T09:03:54.489Z,12.00
2022-08-18T09:09:30.518Z,11.90
2022-08-18T09:15:02.632Z,10.20
2022-08-18T09:20:51.656Z,11.80
2022-08-18T09:26:00.997Z,10.10
2022-08-18T09:31:10.990Z,11.10
2022-08-18T09:36:20.183Z,10.50
2022-08-18T09:41:34.729Z,12.10
2022-08-18T09:46:48.028Z,12.70
2022-08-18T09:51:57.580Z,11.10
2022-08-18T09:57:05.280Z,10.00
2022-08-18T10:02:33.251Z,10.20
2022-08-18T10:07:44.185Z,10.40
2022-08-18T10:13:25.473Z,9.70
2022-08-18T10:18:45.887Z,9.20
2022-08-18T10:24:08.470Z,10.20
2022-08-18T10:29:30.043Z,10.50
2022-08-18T10:34:51.471Z,11.10
2022-08-18T10:40:16.616Z,10.10
2022-08-18T10:46:24.584Z,9.60
2022-08-18T10:51:58.079Z,10.70
2022-08-18T10:57:22.239Z,10.70
2022-08-18T11:02:31.249Z,10.10
2022-08-18T11:07:36.202Z,11.10
2022-08-18T11:12:56.530Z,10.30
2022-08-18T11:18:30.176Z,9.90
2022-08-18T11:23:34.564Z,9.80
2022-08-18T11:28:41.176Z,10.30
2022-08-18T11:33:51.376Z,9.00
2022-08-18T11:38:57.377Z,9.40
2022-08-18T11:44:03.187Z,10.40
2022-08-18T11:49:26.159Z,10.50
2022-08-18T11:54:50.904Z,8.90
2022-08-18T12:00:00.633Z,9.20
2022-08-18T12:05:22.453Z,10.50
2022-08-18T12:10:29.381Z,10.40
2022-08-18T12:15:43.857Z,10.50
2022-08-18T12:26:27.110Z,11.60
2022-08-18T12:31:47.419Z,12.10
2022-08-18T12:37:07.161Z,10.80
2022-08-18T12:42:18.237Z,10.60
2022-08-18T12:47:31.036Z,11.30
2022-08-18T12:52:35.971Z,11.00
2022-08-18T13:03:03.631Z,11.50
2022-08-18T13:08:30.327Z,9.20
2022-08-18T13:13:35.731Z,9.70
2022-08-18T13:18:45.370Z,9.70
2022-08-18T13:23:50.808Z,10.70
2022-08-18T13:28:58.896Z,10.00
2022-08-18T13:34:04.045Z,10.70
2022-08-18T13:39:08.842Z,11.80
2022-08-18T13:44:18.608Z,10.50
2022-08-18T13:49:30.085Z,9.90
2022-08-18T13:54:35.549Z,10.50
2022-08-18T13:59:46.466Z,10.50
2022-08-18T14:04:51.927Z,9.80
2022-08-18T14:09:56.190Z,9.10
2022-08-18T14:15:00.107Z,9.80
2022-08-18T14:20:27.425Z,10.00
2022-08-18T14:25:50.209Z,8.90
2022-08-18T14:30:55.877Z,9.30
2022-08-18T14:36:06.712Z,9.90
2022-08-18T14:41:15.338Z,10.10
2022-08-18T14:51:33.662Z,9.60
2022-08-18T14:56:39.536Z,8.40
2022-08-18T15:01:44.081Z,9.30
2022-08-18T15:06:56.328Z,8.00
2022-08-18T15:12:01.221Z,9.10
2022-08-18T15:17:11.845Z,8.30
2022-08-18T15:22:35.642Z,8.80
2022-08-18T15:27:42.686Z,8.70
2022-08-18T15:32:50.068Z,8.20
2022-08-18T15:37:55.154Z,9.20
2022-08-18T15:43:01.763Z,8.90
2022-08-18T15:48:05.584Z,9.00
2022-08-18T15:53:11.235Z,9.00
2022-08-18T15:58:15.609Z,9.30
2022-08-18T16:03:25.886Z,9.30
2022-08-18T16:08:32.180Z,8.50
2022-08-18T16:13:35.578Z,7.40
2022-08-18T16:18:40.205Z,8.30
2022-08-18T16:23:45.817Z,8.80
2022-08-18T16:28:52.921Z,8.60
2022-08-18T16:33:58.277Z,9.20
2022-08-18T16:39:01.657Z,10.20
2022-08-18T16:44:05.148Z,10.00
2022-08-18T16:49:08.498Z,9.60
2022-08-18T16:54:14.724Z,9.70
2022-08-18T16:59:38.740Z,9.70
2022-08-18T17:04:43.652Z,9.80
2022-08-18T17:09:47.128Z,9.90
2022-08-18T17:14:52.137Z,10.70
2022-08-18T17:19:56.375Z,9.70
2022-08-18T17:25:03.925Z,9.90
2022-08-18T17:30:17.548Z,11.20
2022-08-18T17:35:32.007Z,11.00
2022-08-18T17:40:48.402Z,11.20
2022-08-18T17:46:02.642Z,12.30
2022-08-18T17:51:36.511Z,12.50
2022-08-18T17:56:53.215Z,11.00
2022-08-18T18:02:29.988Z,10.70
2022-08-18T18:07:54.221Z,11.70
2022-08-18T18:13:16.550Z,12.10
2022-08-18T18:18:42.580Z,11.70
2022-08-18T18:23:55.626Z,13.10
2022-08-18T18:29:33.432Z,11.60
2022-08-18T18:34:46.675Z,11.70
2022-08-18T18:40:08.789Z,11.10
2022-08-18T18:45:31.185Z,10.70
2022-08-18T18:50:55.969Z,12.00
2022-08-18T18:56:19.349Z,13.20
2022-08-18T19:01:40.829Z,12.90
2022-08-18T19:06:54.711Z,10.80
2022-08-18T19:12:19.053Z,11.70
2022-08-18T19:17:43.462Z,13.20
2022-08-18T19:22:59.929Z,15.00
2022-08-18T19:28:31.477Z,13.60
2022-08-18T19:34:10.336Z,15.30
2022-08-18T19:39:21.873Z,14.40
2022-08-18T19:45:00.340Z,14.70
2022-08-18T19:50:22.086Z,14.40
2022-08-18T19:55:35.716Z,15.20
2022-08-18T20:00:54.621Z,14.80
2022-08-18T20:06:33.271Z,12.50
2022-08-18T20:11:41.934Z,13.20
2022-08-18T20:17:32.945Z,14.90
2022-08-18T20:22:40.542Z,15.30
2022-08-18T20:27:50.960Z,13.40
2022-08-18T20:33:29.482Z,14.70
2022-08-18T20:38:35.666Z,13.10
2022-08-18T20:43:40.260Z,12.50
2022-08-18T20:49:08.669Z,12.20
2022-08-18T20:54:57.478Z,13.10
2022-08-18T21:00:16.174Z,12.80
2022-08-18T21:05:39.377Z,13.60
2022-08-18T21:11:03.807Z,12.70
2022-08-18T21:16:38.148Z,12.00
2022-08-18T21:21:52.230Z,13.60
2022-08-18T21:27:01.667Z,12.40
2022-08-18T21:32:17.936Z,11.40
2022-08-18T21:37:22.839Z,12.70
2022-08-18T21:42:43.238Z,12.30
2022-08-18T21:47:54.328Z,12.70
2022-08-18T21:53:03.222Z,11.70
2022-08-18T21:58:19.677Z,12.70
2022-08-18T22:03:54.028Z,13.80
2022-08-18T22:09:26.662Z,11.00
2022-08-18T22:14:55.169Z,11.20
2022-08-18T22:20:39.651Z,11.30
2022-08-18T22:25:44.294Z,11.90
2022-08-18T22:30:48.330Z,11.10
2022-08-18T22:35:57.349Z,11.10
2022-08-18T22:41:02.255Z,10.90
2022-08-18T22:46:09.782Z,10.80
2022-08-18T22:51:14.058Z,10.90
2022-08-18T22:56:26.471Z,10.20
2022-08-18T23:01:40.377Z,10.00
2022-08-18T23:06:52.379Z,9.60
2022-08-18T23:12:00.502Z,10.60
2022-08-18T23:17:06.442Z,10.90
2022-08-18T23:22:11.490Z,10.00
2022-08-18T23:27:16.240Z,10.10
2022-08-18T23:32:30.212Z,10.20
2022-08-18T23:37:36.285Z,9.50
2022-08-18T23:42:40.863Z,9.00
2022-08-18T23:47:46.322Z,9.90
2022-08-18T23:53:00.824Z,11.20
2022-08-18T23:58:06.431Z,11.40
